Time;durP1;ratioP1;P1;durP2;ratioP2;P2;SDS_P1;SDS_P2;PMS_P1;PMS_P2;Temp;Humidity;BMP_temperature;BMP_pressure;BME280_temperature;BME280_humidity;BME280_pressure;Samples;Min_cycle;Max_cycle;Signal;HPM_P1;HPM_P2
2022/06/06 00:00:03;;;;;;;112.50;41.55;;;;;;;13.67;100.00;101153.56;172064;28;785;-70
2022/06/06 00:00:11;;;;;;;109.60;41.34;;;;;;;13.74;100.00;101153.22;171937;28;1327;-69
2022/06/06 00:00:17;;;;;;;108.00;40.87;;;;;;;13.73;100.00;101153.28;173256;28;1825;-70
2022/06/06 00:00:22;;;;;;;110.25;41.03;;;;;;;13.68;100.00;101153.50;173296;28;879;-70
2022/06/06 00:00:28;;;;;;;112.30;41.10;;;;;;;13.68;100.00;101152.69;173367;28;1069;-70
2022/06/06 00:00:33;;;;;;;112.93;40.85;;;;;;;13.67;100.00;101148.34;173337;28;898;-69
2022/06/06 00:00:40;;;;;;;112.70;40.87;;;;;;;13.68;100.00;101152.69;173359;28;943;-69
2022/06/06 00:00:47;;;;;;;111.64;41.06;;;;;;;13.65;100.00;101149.28;173340;28;978;-71
2022/06/06 00:00:53;;;;;;;109.87;41.00;;;;;;;13.70;100.00;101150.81;173373;28;966;-70
2022/06/06 00:00:58;;;;;;;110.82;41.35;;;;;;;13.74;100.00;101149.72;173353;28;1150;-69
2022/06/06 00:01:19;;;;;;;111.37;42.07;;;;;;;13.69;100.00;101157.81;173366;28;883;-70
2022/06/06 00:01:24;;;;;;;110.13;42.55;;;;;;;13.69;100.00;101151.75;173332;28;1289;-70
2022/06/06 00:01:30;;;;;;;109.10;42.85;;;;;;;13.72;100.00;101146.34;173365;28;847;-70
2022/06/06 00:01:35;;;;;;;108.67;42.77;;;;;;;13.73;100.00;101148.91;173373;28;828;-70
2022/06/06 00:01:41;;;;;;;111.15;43.03;;;;;;;13.76;100.00;101148.72;173395;28;965;-70
2022/06/06 00:01:50;;;;;;;112.00;42.90;;;;;;;13.79;100.00;101152.94;173335;28;867;-70
2022/06/06 00:01:57;;;;;;;112.41;42.42;;;;;;;13.80;100.00;101154.66;173235;28;1185;-70
2022/06/06 00:02:04;;;;;;;111.23;42.00;;;;;;;13.77;100.00;101145.19;173380;28;906;-70
2022/06/06 00:02:10;;;;;;;111.22;41.74;;;;;;;13.72;100.00;101141.94;173337;28;1050;-70
2022/06/06 00:02:15;;;;;;;111.47;41.47;;;;;;;13.77;100.00;101149.56;173046;28;955;-69
2022/06/06 00:02:21;;;;;;;112.10;41.33;;;;;;;13.74;100.00;101153.22;172437;28;1080;-69
2022/06/06 00:02:29;;;;;;;108.53;41.13;;;;;;;13.74;100.00;101149.72;172038;28;898;-70
2022/06/06 00:02:36;;;;;;;108.43;41.23;;;;;;;13.69;100.00;101152.56;171977;28;1106;-70
2022/06/06 00:02:41;;;;;;;106.85;41.42;;;;;;;13.68;100.00;101147.44;172089;28;1167;-69
2022/06/06 00:02:49;;;;;;;106.78;41.70;;;;;;;13.68;100.00;101147.44;172597;28;892;-70
2022/06/06 00:02:54;;;;;;;106.04;41.84;;;;;;;13.70;100.00;101151.66;172677;28;919;-70
2022/06/06 00:03:00;;;;;;;106.13;41.83;;;;;;;13.70;100.00;101149.03;172646;28;1240;-70
2022/06/06 00:03:07;;;;;;;106.90;42.07;;;;;;;13.72;100.00;101148.97;172705;28;942;-71
2022/06/06 00:03:15;;;;;;;107.90;42.05;;;;;;;13.75;100.00;101154.03;172701;28;966;-71
2022/06/06 00:03:21;;;;;;;110.20;42.37;;;;;;;13.77;100.00;101152.19;172669;28;875;-70
2022/06/06 00:03:30;;;;;;;110.23;42.27;;;;;;;13.77;100.00;101160.94;172696;28;974;-71
2022/06/06 00:03:35;;;;;;;112.40;42.52;;;;;;;13.74;100.00;101147.97;172657;28;1007;-71
2022/06/06 00:03:42;;;;;;;112.22;42.42;;;;;;;13.70;100.00;101148.19;172667;28;836;-69
2022/06/06 00:03:49;;;;;;;110.26;41.70;;;;;;;13.68;100.00;101150.06;172660;28;945;-70
2022/06/06 00:03:55;;;;;;;111.00;42.13;;;;;;;13.67;100.00;101143.09;172690;28;942;-71
2022/06/06 00:04:00;;;;;;;111.32;42.50;;;;;;;13.70;100.00;101149.03;172612;28;1153;-69
2022/06/06 00:04:05;;;;;;;112.47;42.43;;;;;;;13.75;100.00;101146.16;172687;28;919;-70
2022/06/06 00:04:11;;;;;;;113.53;42.45;;;;;;;13.78;100.00;101146.00;172723;28;847;-70
2022/06/06 00:04:19;;;;;;;116.47;43.10;;;;;;;13.78;100.00;101148.63;172649;28;1077;-70
2022/06/06 00:04:27;;;;;;;116.99;43.16;;;;;;;13.78;100.00;101149.50;172650;28;1091;-70
2022/06/06 00:04:36;;;;;;;119.63;42.87;;;;;;;13.82;100.00;101147.56;172684;28;950;-70
2022/06/06 00:04:41;;;;;;;119.33;42.97;;;;;;;13.85;100.00;101152.66;172725;28;991;-70
2022/06/06 00:04:46;;;;;;;119.90;42.70;;;;;;;13.85;100.00;101147.41;172191;28;1029;-70
2022/06/06 00:04:52;;;;;;;120.37;42.37;;;;;;;13.86;100.00;101149.09;172031;28;832;-70
2022/06/06 00:04:57;;;;;;;122.37;42.37;;;;;;;13.86;100.00;101146.47;172562;28;1405;-70
2022/06/06 00:05:05;;;;;;;120.38;42.20;;;;;;;13.81;100.00;101145.88;172682;28;910;-70
2022/06/06 00:05:15;;;;;;;124.47;42.63;;;;;;;13.82;100.00;101152.81;172688;28;891;-70
2022/06/06 00:05:20;;;;;;;126.06;43.04;;;;;;;13.84;100.00;101156.22;172667;28;1198;-70
2022/06/06 00:05:26;;;;;;;128.45;43.55;;;;;;;13.84;100.00;101150.09;172674;28;994;-70
2022/06/06 00:05:32;;;;;;;131.37;43.70;;;;;;;13.85;100.00;101147.41;172678;28;832;-70
2022/06/06 00:05:42;;;;;;;132.65;43.90;;;;;;;13.90;100.00;101141.94;172597;28;1093;-70
2022/06/06 00:05:48;;;;;;;132.30;44.06;;;;;;;13.92;100.00;101144.47;172667;28;1340;-70
2022/06/06 00:05:54;;;;;;;127.95;43.72;;;;;;;13.90;100.00;101142.75;172660;28;954;-70
2022/06/06 00:05:59;;;;;;;129.33;43.80;;;;;;;13.89;100.00;101142.88;172681;28;1357;-70
2022/06/06 00:06:10;;;;;;;127.88;43.58;;;;;;;13.92;100.00;101147.09;172552;28;1037;-71
2022/06/06 00:06:20;;;;;;;123.32;42.98;;;;;;;13.89;100.00;101138.44;172677;28;1288;-69
2022/06/06 00:06:25;;;;;;;122.25;42.78;;;;;;;13.93;100.00;101146.16;172667;28;1199;-70
2022/06/06 00:06:31;;;;;;;121.97;43.13;;;;;;;13.92;100.00;101147.09;172698;28;844;-69
2022/06/06 00:06:37;;;;;;;120.97;43.40;;;;;;;13.88;100.00;101147.25;172672;28;824;-70
2022/06/06 00:06:43;;;;;;;121.43;43.88;;;;;;;13.83;100.00;101149.28;172703;28;927;-70
2022/06/06 00:06:51;;;;;;;122.37;43.77;;;;;;;13.83;100.00;101151.91;171933;28;1492;-70
2022/06/06 00:06:59;;;;;;;122.87;43.77;;;;;;;13.85;100.00;101155.28;171215;28;1501;-70
2022/06/06 00:07:05;;;;;;;120.37;43.50;;;;;;;13.85;100.00;101142.16;171325;28;993;-70
2022/06/06 00:07:11;;;;;;;122.80;43.28;;;;;;;13.89;100.00;101148.09;171323;28;920;-70
2022/06/06 00:07:16;;;;;;;122.67;43.40;;;;;;;13.86;100.00;101149.09;171331;28;975;-68
2022/06/06 00:07:21;;;;;;;122.35;43.42;;;;;;;13.86;100.00;101149.09;171321;28;864;-68
2022/06/06 00:07:27;;;;;;;121.17;43.40;;;;;;;13.82;100.00;101149.34;171324;28;964;-70
2022/06/06 00:07:32;;;;;;;121.75;43.15;;;;;;;13.79;100.00;101152.94;171326;28;1034;-70
2022/06/06 00:07:38;;;;;;;120.60;42.87;;;;;;;13.75;100.00;101154.03;171313;28;895;-70
2022/06/06 00:07:43;;;;;;;116.23;42.37;;;;;;;13.75;100.00;101152.28;171361;28;856;-70
2022/06/06 00:07:49;;;;;;;114.22;42.33;;;;;;;13.77;100.00;101157.44;171323;28;1050;-70
2022/06/06 00:07:54;;;;;;;112.33;42.07;;;;;;;13.80;100.00;101154.66;171376;28;828;-70
2022/06/06 00:07:59;;;;;;;110.97;41.95;;;;;;;13.83;100.00;101157.16;171241;28;1915;-70
2022/06/06 00:08:05;;;;;;;112.47;42.03;;;;;;;13.85;100.00;101152.66;171313;28;1015;-70
2022/06/06 00:08:12;;;;;;;114.18;42.30;;;;;;;13.87;100.00;101155.19;171191;28;1395;-70
2022/06/06 00:08:17;;;;;;;116.47;42.00;;;;;;;13.85;100.00;101152.66;171306;28;805;-70
2022/06/06 00:08:22;;;;;;;114.00;41.55;;;;;;;13.85;100.00;101152.66;171317;28;1042;-69
2022/06/06 00:08:28;;;;;;;112.50;41.57;;;;;;;13.87;100.00;101150.81;171313;28;899;-69
2022/06/06 00:08:33;;;;;;;110.07;41.40;;;;;;;13.89;100.00;101142.88;171311;28;1098;-69
2022/06/06 00:08:40;;;;;;;106.13;41.03;;;;;;;13.92;100.00;101147.09;171303;28;1030;-70
2022/06/06 00:08:48;;;;;;;104.54;40.86;;;;;;;13.95;100.00;101146.91;171521;28;971;-70
2022/06/06 00:08:53;;;;;;;108.42;41.42;;;;;;;13.93;100.00;101148.78;171993;28;994;-70
2022/06/06 00:08:59;;;;;;;109.33;41.20;;;;;;;13.89;100.00;101148.94;172575;28;1025;-70
2022/06/06 00:09:04;;;;;;;109.20;41.50;;;;;;;13.92;100.00;101154.97;172635;28;853;-70
2022/06/06 00:09:14;;;;;;;111.50;41.67;;;;;;;13.95;100.00;101157.41;172642;28;970;-70
2022/06/06 00:09:19;;;;;;;113.74;42.01;;;;;;;13.97;100.00;101150.31;172656;28;1201;-70
2022/06/06 00:09:27;;;;;;;113.73;41.87;;;;;;;13.98;100.00;101147.63;172666;28;843;-70
2022/06/06 00:09:33;;;;;;;117.38;42.17;;;;;;;13.99;100.00;101148.47;172670;28;1140;-70
2022/06/06 00:09:39;;;;;;;119.18;42.50;;;;;;;13.99;100.00;101149.31;172673;28;966;-70
2022/06/06 00:09:45;;;;;;;116.20;42.03;;;;;;;13.95;100.00;101157.41;172743;28;939;-70
2022/06/06 00:09:51;;;;;;;115.28;42.13;;;;;;;13.96;100.00;101151.25;172681;28;1143;-69
2022/06/06 00:09:56;;;;;;;114.72;42.10;;;;;;;13.93;100.00;101154.03;172650;28;1101;-69
2022/06/06 00:10:03;;;;;;;114.83;42.47;;;;;;;13.92;100.00;101153.16;172674;28;1022;-69
2022/06/06 00:10:10;;;;;;;113.44;42.10;;;;;;;13.93;100.00;101157.50;172657;28;978;-70
2022/06/06 00:10:15;;;;;;;113.64;42.08;;;;;;;13.91;100.00;101151.50;172606;28;1057;-71
2022/06/06 00:10:21;;;;;;;113.27;41.73;;;;;;;13.88;100.00;101152.50;172711;28;868;-70
2022/06/06 00:10:27;;;;;;;112.43;41.97;;;;;;;13.85;100.00;101159.66;173252;28;959;-70
2022/06/06 00:10:32;;;;;;;110.40;41.90;;;;;;;13.80;100.00;101159.91;173361;28;930;-70
2022/06/06 00:10:40;;;;;;;108.93;41.73;;;;;;;13.79;100.00;101155.56;173313;28;1030;-70
2022/06/06 00:10:57;;;;;;;108.37;41.82;;;;;;;13.86;100.00;101149.09;173374;28;990;-70
2022/06/06 00:11:04;;;;;;;110.38;42.06;;;;;;;13.90;100.00;101150.63;173324;28;1302;-70
2022/06/06 00:11:11;;;;;;;111.66;41.80;;;;;;;13.96;100.00;101153.88;173329;28;1025;-70
2022/06/06 00:11:17;;;;;;;114.82;41.74;;;;;;;13.96;100.00;101153.88;173303;28;1176;-69
2022/06/06 00:11:24;;;;;;;116.00;41.73;;;;;;;13.97;100.00;101152.94;173377;28;879;-69
2022/06/06 00:11:34;;;;;;;116.24;41.58;;;;;;;13.96;100.00;101156.50;173330;28;1093;-70
2022/06/06 00:11:40;;;;;;;116.71;41.88;;;;;;;13.95;100.00;101152.16;173339;28;1193;-70
2022/06/06 00:11:46;;;;;;;116.13;42.63;;;;;;;13.96;100.00;101148.63;173386;28;985;-69
2022/06/06 00:11:51;;;;;;;114.38;43.00;;;;;;;13.97;100.00;101152.94;173364;28;923;-70
2022/06/06 00:12:00;;;;;;;114.93;43.33;;;;;;;13.97;100.00;101158.19;173358;28;986;-70
2022/06/06 00:12:06;;;;;;;114.51;43.04;;;;;;;13.93;100.00;101151.41;173331;28;1148;-70
2022/06/06 00:12:12;;;;;;;113.00;42.68;;;;;;;13.96;100.00;101152.09;173353;28;908;-70
2022/06/06 00:12:20;;;;;;;111.77;42.20;;;;;;;13.97;100.00;101150.31;172537;28;836;-70
2022/06/06 00:12:25;;;;;;;110.22;41.97;;;;;;;13.95;100.00;101153.03;172266;28;1011;-70
2022/06/06 00:12:30;;;;;;;111.47;42.07;;;;;;;13.92;100.00;101153.16;171995;28;832;-70
2022/06/06 00:12:36;;;;;;;113.15;42.33;;;;;;;13.88;100.00;101151.63;172001;28;950;-70
2022/06/06 00:12:42;;;;;;;111.87;42.23;;;;;;;13.89;100.00;101148.09;171915;28;848;-70
2022/06/06 00:12:47;;;;;;;112.13;42.17;;;;;;;13.93;100.00;101149.66;172017;28;982;-70
2022/06/06 00:12:53;;;;;;;114.30;42.27;;;;;;;13.94;100.00;101153.97;172009;28;1120;-69
2022/06/06 00:12:58;;;;;;;112.07;42.08;;;;;;;13.89;100.00;101150.72;171997;28;919;-69
2022/06/06 00:13:04;;;;;;;109.00;41.80;;;;;;;13.84;100.00;101155.34;172006;28;769;-70
2022/06/06 00:13:12;;;;;;;109.55;41.63;;;;;;;13.85;100.00;101157.03;171978;28;1073;-69
2022/06/06 00:13:17;;;;;;;108.80;41.67;;;;;;;13.89;100.00;101148.09;172008;28;1030;-70
2022/06/06 00:13:23;;;;;;;107.63;41.07;;;;;;;13.93;100.00;101143.53;171977;28;911;-69
2022/06/06 00:13:28;;;;;;;110.72;41.50;;;;;;;13.94;100.00;101151.34;171948;28;908;-69
2022/06/06 00:13:34;;;;;;;114.30;41.70;;;;;;;13.91;100.00;101151.50;171899;28;820;-70
2022/06/06 00:13:44;;;;;;;113.50;41.40;;;;;;;13.92;100.00;101149.72;171263;28;856;-69
2022/06/06 00:13:50;;;;;;;110.82;40.78;;;;;;;13.84;100.00;101153.59;171301;28;1181;-70
2022/06/06 00:13:55;;;;;;;108.63;40.85;;;;;;;13.79;100.00;101152.94;171320;28;1107;-70
2022/06/06 00:14:01;;;;;;;104.93;40.33;;;;;;;13.75;100.00;101151.41;171273;28;859;-70
2022/06/06 00:14:08;;;;;;;102.82;40.55;;;;;;;13.75;100.00;101148.78;171231;28;979;-70
2022/06/06 00:14:16;;;;;;;103.66;41.14;;;;;;;13.81;100.00;101158.97;171333;28;1115;-69
2022/06/06 00:14:22;;;;;;;103.07;41.45;;;;;;;13.87;100.00;101144.69;171325;28;1030;-70
2022/06/06 00:14:28;;;;;;;101.68;41.63;;;;;;;13.90;100.00;101147.16;171225;28;1411;-70
2022/06/06 00:14:34;;;;;;;102.70;42.36;;;;;;;13.90;100.00;101155.03;171291;28;1002;-69
2022/06/06 00:14:40;;;;;;;102.97;42.27;;;;;;;13.88;100.00;101152.50;171323;28;1068;-70
2022/06/06 00:14:47;;;;;;;102.80;42.13;;;;;;;13.84;100.00;101150.97;171374;28;769;-70
2022/06/06 00:14:52;;;;;;;104.06;42.04;;;;;;;13.80;100.00;101148.56;171309;28;910;-70
2022/06/06 00:14:58;;;;;;;105.23;42.03;;;;;;;13.78;100.00;101157.38;171321;28;1018;-70
2022/06/06 00:15:04;;;;;;;104.43;41.72;;;;;;;13.83;100.00;101157.16;171336;28;859;-69
2022/06/06 00:15:13;;;;;;;104.92;41.60;;;;;;;13.85;100.00;101154.41;171314;28;975;-69
2022/06/06 00:15:19;;;;;;;104.60;41.27;;;;;;;13.90;100.00;101155.03;171347;28;978;-70
2022/06/06 00:15:24;;;;;;;105.50;41.17;;;;;;;13.93;100.00;101156.66;171320;28;1186;-70
2022/06/06 00:15:30;;;;;;;105.45;40.63;;;;;;;13.85;100.00;101157.91;171351;28;852;-69
2022/06/06 00:15:35;;;;;;;104.07;40.30;;;;;;;13.84;100.00;101150.97;172027;28;975;-69
2022/06/06 00:15:41;;;;;;;105.43;40.27;;;;;;;13.83;100.00;101151.03;172653;28;848;-69
2022/06/06 00:15:47;;;;;;;105.78;40.42;;;;;;;13.80;100.00;101152.03;172722;28;891;-70
2022/06/06 00:15:52;;;;;;;104.43;40.22;;;;;;;13.84;100.00;101153.59;172709;28;848;-70
2022/06/06 00:15:59;;;;;;;102.83;39.93;;;;;;;13.87;100.00;101149.94;172664;28;986;-70
2022/06/06 00:16:05;;;;;;;102.48;39.96;;;;;;;13.89;100.00;101154.19;172418;28;970;-69
2022/06/06 00:16:10;;;;;;;102.72;40.15;;;;;;;13.82;100.00;101152.81;172031;28;1030;-69
2022/06/06 00:16:16;;;;;;;104.18;40.15;;;;;;;13.83;100.00;101154.53;172071;28;1089;-70
2022/06/06 00:16:21;;;;;;;103.97;40.30;;;;;;;13.87;100.00;101158.69;172031;28;1002;-70
2022/06/06 00:16:27;;;;;;;103.40;40.42;;;;;;;13.90;100.00;101163.75;172561;28;1407;-69
2022/06/06 00:16:32;;;;;;;102.90;41.00;;;;;;;13.89;100.00;101148.09;172615;28;1042;-70
2022/06/06 00:16:38;;;;;;;102.00;40.85;;;;;;;13.89;100.00;101153.34;171922;28;1315;-69
2022/06/06 00:16:44;;;;;;;102.35;40.88;;;;;;;13.90;100.00;101160.28;172010;28;943;-69
2022/06/06 00:16:50;;;;;;;103.15;41.05;;;;;;;13.88;100.00;101149.88;171983;28;915;-69
2022/06/06 00:16:56;;;;;;;106.00;41.50;;;;;;;13.86;100.00;101149.09;171990;28;926;-70
2022/06/06 00:17:01;;;;;;;106.03;41.57;;;;;;;13.86;100.00;101149.09;172010;28;915;-70
2022/06/06 00:17:07;;;;;;;103.53;41.33;;;;;;;13.90;100.00;101148.00;171986;28;1002;-70
2022/06/06 00:17:13;;;;;;;100.63;40.93;;;;;;;13.93;100.00;101148.78;171984;28;860;-69
2022/06/06 00:17:18;;;;;;;100.67;41.07;;;;;;;13.96;100.00;101146.00;172007;28;1062;-70
2022/06/06 00:17:24;;;;;;;97.97;40.80;;;;;;;13.95;100.00;101147.78;171981;28;898;-68
2022/06/06 00:17:29;;;;;;;97.37;40.50;;;;;;;13.90;100.00;101145.38;171982;28;829;-69
2022/06/06 00:17:36;;;;;;;98.90;40.33;;;;;;;13.84;100.00;101145.72;172030;28;847;-69
2022/06/06 00:17:41;;;;;;;99.12;40.06;;;;;;;13.80;100.00;101154.66;171970;28;935;-70
2022/06/06 00:17:47;;;;;;;98.17;39.90;;;;;;;13.79;100.00;101152.94;172036;28;911;-70
2022/06/06 00:17:52;;;;;;;97.43;39.40;;;;;;;13.79;100.00;101158.19;171999;28;1017;-70
2022/06/06 00:17:58;;;;;;;95.67;39.00;;;;;;;13.82;100.00;101160.66;171965;28;828;-70
2022/06/06 00:18:04;;;;;;;95.40;39.23;;;;;;;13.84;100.00;101156.22;171968;28;905;-69
2022/06/06 00:18:09;;;;;;;93.72;38.98;;;;;;;13.88;100.00;101152.50;171944;28;1082;-70
2022/06/06 00:18:15;;;;;;;93.00;39.07;;;;;;;13.88;100.00;101160.38;172009;28;918;-69
2022/06/06 00:18:20;;;;;;;91.73;39.33;;;;;;;13.90;100.00;101145.38;171974;28;899;-70
2022/06/06 00:18:27;;;;;;;91.80;39.65;;;;;;;13.92;100.00;101152.34;171265;28;765;-70
2022/06/06 00:18:33;;;;;;;89.57;39.35;;;;;;;13.92;100.00;101149.72;171316;28;939;-70
2022/06/06 00:18:38;;;;;;;90.16;39.66;;;;;;;13.92;100.00;101154.97;171865;28;1050;-69
2022/06/06 00:18:44;;;;;;;90.30;39.33;;;;;;;13.87;100.00;101156.06;172024;28;1076;-69
2022/06/06 00:18:49;;;;;;;89.28;39.00;;;;;;;13.85;100.00;101151.78;171976;28;887;-69
2022/06/06 00:18:55;;;;;;;88.97;39.13;;;;;;;13.81;100.00;101153.72;171973;28;939;-70
2022/06/06 00:19:00;;;;;;;90.53;39.40;;;;;;;13.84;100.00;101158.84;171989;28;1180;-70
2022/06/06 00:19:06;;;;;;;89.40;39.30;;;;;;;13.87;100.00;101150.81;172019;28;958;-68
2022/06/06 00:19:12;;;;;;;86.17;39.27;;;;;;;13.90;100.00;101150.63;171995;28;951;-69
2022/06/06 00:19:18;;;;;;;87.34;39.70;;;;;;;13.90;100.00;101153.25;172044;28;950;-70
2022/06/06 00:19:24;;;;;;;89.93;39.57;;;;;;;13.91;100.00;101151.50;171985;28;898;-70
2022/06/06 00:19:29;;;;;;;90.55;39.33;;;;;;;13.95;100.00;101144.28;171973;28;923;-69
2022/06/06 00:19:35;;;;;;;93.47;39.63;;;;;;;13.97;100.00;101156.44;171967;28;766;-70
2022/06/06 00:19:41;;;;;;;95.22;40.10;;;;;;;13.92;100.00;101147.09;171976;28;871;-69
2022/06/06 00:19:47;;;;;;;94.63;40.13;;;;;;;13.93;100.00;101149.66;172057;28;1341;-70
2022/06/06 00:19:52;;;;;;;94.63;39.80;;;;;;;13.96;100.00;101146.84;171965;28;1030;-69
2022/06/06 00:19:58;;;;;;;94.88;40.28;;;;;;;13.98;100.00;101152.88;171975;28;1093;-69
2022/06/06 00:20:04;;;;;;;96.83;40.43;;;;;;;14.00;100.00;101148.38;172006;28;974;-69
2022/06/06 00:20:10;;;;;;;99.17;40.53;;;;;;;14.03;100.00;101155.25;172015;28;1196;-70
2022/06/06 00:20:16;;;;;;;99.88;40.58;;;;;;;14.04;100.00;101151.69;172030;28;911;-70
2022/06/06 00:20:21;;;;;;;100.53;40.80;;;;;;;14.03;100.00;101152.63;172009;28;852;-70
2022/06/06 00:20:27;;;;;;;100.50;40.53;;;;;;;13.98;100.00;101152.00;172030;28;839;-69
2022/06/06 00:20:33;;;;;;;100.45;40.45;;;;;;;13.98;100.00;101157.25;172040;28;1025;-69
2022/06/06 00:20:38;;;;;;;98.77;40.30;;;;;;;13.96;100.00;101151.25;172568;28;1447;-69
2022/06/06 00:20:43;;;;;;;99.38;40.47;;;;;;;13.95;100.00;101146.91;172645;28;923;-69
2022/06/06 00:20:49;;;;;;;98.97;40.53;;;;;;;13.97;100.00;101155.56;172680;28;867;-69
2022/06/06 00:20:54;;;;;;;97.85;40.60;;;;;;;13.97;100.00;101150.31;172670;28;1077;-69
2022/06/06 00:21:00;;;;;;;96.87;40.57;;;;;;;13.97;100.00;101150.31;172664;28;922;-69
2022/06/06 00:21:09;;;;;;;95.43;40.50;;;;;;;14.00;100.00;101150.16;172644;28;1300;-69
2022/06/06 00:21:15;;;;;;;93.70;40.21;;;;;;;13.95;100.00;101152.16;172637;28;1282;-70
2022/06/06 00:21:21;;;;;;;91.35;39.85;;;;;;;13.88;100.00;101149.88;172646;28;931;-69
2022/06/06 00:21:26;;;;;;;91.68;39.95;;;;;;;13.93;100.00;101146.16;172680;28;1100;-69
2022/06/06 00:21:34;;;;;;;91.90;39.77;;;;;;;13.90;100.00;101148.00;172674;28;1073;-69
2022/06/06 00:21:41;;;;;;;89.20;39.43;;;;;;;13.94;100.00;101146.09;172679;28;994;-69
2022/06/06 00:21:48;;;;;;;91.53;39.80;;;;;;;13.98;100.00;101152.00;172718;28;974;-69
2022/06/06 00:21:54;;;;;;;93.12;39.78;;;;;;;13.97;100.00;101152.94;172646;28;978;-69
2022/06/06 00:22:00;;;;;;;93.50;39.97;;;;;;;13.99;100.00;101140.59;172649;28;887;-70
2022/06/06 00:22:06;;;;;;;96.93;40.25;;;;;;;14.00;100.00;101145.75;172648;28;847;-69
2022/06/06 00:22:11;;;;;;;101.27;40.50;;;;;;;14.02;100.00;101150.91;172679;28;852;-70
2022/06/06 00:22:16;;;;;;;101.72;40.47;;;;;;;14.03;100.00;101152.63;172668;28;1014;-70
2022/06/06 00:22:22;;;;;;;101.47;40.63;;;;;;;14.03;100.00;101144.75;172646;28;1092;-69
2022/06/06 00:22:27;;;;;;;101.07;40.55;;;;;;;14.04;100.00;101142.03;172656;28;1471;-70
2022/06/06 00:22:32;;;;;;;98.47;40.30;;;;;;;14.06;100.00;101147.19;172656;28;895;-70
2022/06/06 00:22:38;;;;;;;97.50;40.40;;;;;;;14.06;100.00;101155.06;172198;28;914;-70
2022/06/06 00:22:43;;;;;;;93.55;40.08;;;;;;;14.08;100.00;101148.00;172050;28;1022;-70
2022/06/06 00:22:49;;;;;;;93.80;39.83;;;;;;;14.10;100.00;101146.13;172053;28;1311;-69
2022/06/06 00:22:55;;;;;;;93.80;39.67;;;;;;;14.10;100.00;101146.13;172033;28;1077;-69
2022/06/06 00:23:00;;;;;;;95.45;39.58;;;;;;;14.11;100.00;101150.47;172039;28;1392;-70
2022/06/06 00:23:06;;;;;;;95.93;39.40;;;;;;;14.12;100.00;101149.53;172564;28;824;-69
2022/06/06 00:23:11;;;;;;;98.40;39.85;;;;;;;14.13;100.00;101143.34;172555;28;1163;-70
2022/06/06 00:23:16;;;;;;;99.10;39.93;;;;;;;14.14;100.00;101147.66;172705;28;974;-69
2022/06/06 00:23:22;;;;;;;98.80;40.17;;;;;;;14.13;100.00;101148.59;172663;28;962;-69
2022/06/06 00:23:27;;;;;;;98.47;40.10;;;;;;;14.12;100.00;101143.41;172671;28;844;-70
2022/06/06 00:23:33;;;;;;;97.13;40.23;;;;;;;14.08;100.00;101142.75;172679;28;914;-69
2022/06/06 00:23:39;;;;;;;98.13;40.25;;;;;;;14.06;100.00;101143.75;172668;28;1038;-69
2022/06/06 00:23:45;;;;;;;97.82;39.92;;;;;;;13.99;100.00;101148.47;172706;28;967;-70
2022/06/06 00:23:51;;;;;;;99.55;40.30;;;;;;;14.02;100.00;101143.03;172634;28;985;-69
2022/06/06 00:23:59;;;;;;;97.78;40.10;;;;;;;13.99;100.00;101143.22;171934;28;935;-69
2022/06/06 00:24:06;;;;;;;100.83;40.00;;;;;;;14.06;100.00;101143.75;171996;28;903;-69
2022/06/06 00:24:12;;;;;;;98.92;40.28;;;;;;;14.08;100.00;101142.75;172568;28;1302;-69
2022/06/06 00:24:18;;;;;;;98.10;40.00;;;;;;;14.09;100.00;101144.44;172709;28;1483;-69
2022/06/06 00:24:23;;;;;;;95.50;39.47;;;;;;;14.12;100.00;101138.16;172631;28;1077;-69
2022/06/06 00:24:29;;;;;;;96.45;39.80;;;;;;;14.12;100.00;101146.91;172648;28;812;-70
2022/06/06 00:24:34;;;;;;;95.03;39.90;;;;;;;14.11;100.00;101139.97;172665;28;1084;-69
2022/06/06 00:24:40;;;;;;;95.82;39.80;;;;;;;14.14;100.00;101145.03;171908;28;1521;-69
2022/06/06 00:24:45;;;;;;;95.80;40.00;;;;;;;14.15;100.00;101146.75;172032;28;852;-69
2022/06/06 00:24:51;;;;;;;97.68;40.58;;;;;;;14.14;100.00;101142.41;171911;28;1042;-69
2022/06/06 00:24:56;;;;;;;98.87;40.73;;;;;;;14.16;100.00;101140.56;171897;28;852;-69
2022/06/06 00:25:03;;;;;;;98.60;40.67;;;;;;;14.16;100.00;101135.31;172027;28;843;-70
2022/06/06 00:25:09;;;;;;;96.54;40.56;;;;;;;14.18;100.00;101134.38;171957;28;1090;-69
2022/06/06 00:25:16;;;;;;;94.73;40.47;;;;;;;14.18;100.00;101144.88;172064;28;962;-70
2022/06/06 00:25:21;;;;;;;94.53;40.28;;;;;;;14.19;100.00;101139.53;171980;28;955;-69
2022/06/06 00:25:29;;;;;;;93.43;40.30;;;;;;;14.20;100.00;101140.41;171957;28;832;-69
2022/06/06 00:25:34;;;;;;;95.17;40.65;;;;;;;14.20;100.00;101140.41;171984;28;1019;-69
2022/06/06 00:25:39;;;;;;;98.63;40.90;;;;;;;14.20;100.00;101140.41;171994;28;1070;-69
2022/06/06 00:25:45;;;;;;;100.68;40.88;;;;;;;14.20;100.00;101140.41;172026;28;848;-69
2022/06/06 00:25:50;;;;;;;102.97;40.97;;;;;;;14.20;100.00;101145.66;171993;28;1082;-69
2022/06/06 00:25:57;;;;;;;104.40;41.10;;;;;;;14.22;100.00;101143.78;172495;28;880;-69
2022/06/06 00:26:08;;;;;;;103.34;40.88;;;;;;;14.22;100.00;101144.63;172672;28;914;-69
2022/06/06 00:26:15;;;;;;;99.76;40.76;;;;;;;14.23;100.00;101145.50;171915;28;1274;-69
2022/06/06 00:26:21;;;;;;;97.34;40.48;;;;;;;14.25;100.00;101141.00;171518;28;975;-69
2022/06/06 00:26:29;;;;;;;98.13;40.53;;;;;;;14.25;100.00;101141.00;171102;28;1182;-69
2022/06/06 00:26:35;;;;;;;98.25;40.40;;;;;;;14.17;100.00;101144.03;171833;28;1511;-69
2022/06/06 00:26:40;;;;;;;98.35;40.22;;;;;;;14.14;100.00;101139.78;171978;28;904;-69
2022/06/06 00:26:46;;;;;;;98.10;40.25;;;;;;;14.09;100.00;101144.44;172025;28;863;-69
2022/06/06 00:26:51;;;;;;;97.33;40.40;;;;;;;14.06;100.00;101141.97;171976;28;1011;-69
2022/06/06 00:26:57;;;;;;;96.10;40.28;;;;;;;14.11;100.00;101139.09;172417;28;1026;-69
2022/06/06 00:27:04;;;;;;;98.50;40.53;;;;;;;14.12;100.00;101144.28;172673;28;828;-69
2022/06/06 00:27:09;;;;;;;99.26;40.70;;;;;;;14.14;100.00;101137.16;172664;28;891;-69
2022/06/06 00:27:15;;;;;;;99.20;40.60;;;;;;;14.10;100.00;101142.66;172716;28;935;-69
2022/06/06 00:27:20;;;;;;;98.17;40.40;;;;;;;14.01;100.00;101130.88;172657;28;923;-69
2022/06/06 00:27:26;;;;;;;98.30;40.40;;;;;;;13.96;100.00;101138.97;172660;28;919;-70
2022/06/06 00:27:31;;;;;;;93.80;39.90;;;;;;;13.92;100.00;101131.34;172668;28;891;-69
2022/06/06 00:27:36;;;;;;;92.23;39.37;;;;;;;13.87;100.00;101134.22;172650;28;998;-69
2022/06/06 00:27:42;;;;;;;93.43;39.47;;;;;;;13.87;100.00;101135.06;172653;28;1026;-70
2022/06/06 00:27:47;;;;;;;93.63;39.40;;;;;;;13.89;100.00;101137.63;172706;28;934;-70
2022/06/06 00:27:52;;;;;;;91.83;39.23;;;;;;;13.87;100.00;101145.56;172676;28;867;-70
2022/06/06 00:27:58;;;;;;;92.05;39.22;;;;;;;13.87;100.00;101147.31;172587;28;1975;-70
2022/06/06 00:28:04;;;;;;;92.80;39.57;;;;;;;13.93;100.00;101141.78;172680;28;887;-70
2022/06/06 00:28:09;;;;;;;89.18;39.45;;;;;;;13.89;100.00;101133.19;172697;28;911;-69
2022/06/06 00:28:14;;;;;;;89.33;39.57;;;;;;;13.86;100.00;101135.97;172654;28;836;-69
2022/06/06 00:28:21;;;;;;;89.57;39.67;;;;;;;13.82;100.00;101137.06;172664;28;868;-70
2022/06/06 00:28:26;;;;;;;89.70;39.75;;;;;;;13.89;100.00;101142.88;172597;28;1062;-69